createdAt,value
2019-03-19T07:22:25.318Z,57.33
2019-03-19T08:09:25.983Z,52.16
2019-03-19T08:12:10.710Z,51.56
2019-03-19T08:15:26.302Z,51.15
2019-03-19T08:21:29.978Z,51.74
2019-03-19T08:28:00.370Z,50.89
2019-03-19T08:43:57.197Z,48.80
2019-03-19T08:54:11.083Z,49.03
2019-03-19T09:09:20.280Z,49.39
2019-03-19T09:16:01.097Z,49.11
2019-03-19T09:41:01.404Z,48.79
2019-03-19T09:47:14.379Z,48.33
2019-03-19T09:50:16.829Z,48.07
2019-03-19T09:53:00.849Z,48.13
2019-03-19T09:55:38.668Z,48.71
2019-03-19T09:58:36.174Z,48.01
2019-03-19T10:01:24.180Z,48.28
2019-03-19T10:04:12.546Z,48.25
2019-03-19T10:10:27.819Z,47.85
2019-03-19T10:13:05.575Z,48.19
2019-03-19T10:15:58.211Z,48.54
2019-03-19T10:18:47.803Z,48.36
2019-03-19T10:24:15.477Z,48.38
2019-03-19T10:30:27.479Z,49.67
2019-03-19T10:32:48.784Z,48.40
2019-03-19T10:35:30.045Z,48.29
2019-03-19T10:38:09.497Z,48.32
2019-03-19T10:44:06.928Z,48.37
2019-03-19T10:50:27.490Z,48.18
2019-03-19T10:53:13.780Z,48.43
2019-03-19T10:55:46.063Z,47.69
2019-03-19T11:01:42.271Z,47.18
2019-03-19T11:04:31.371Z,47.51
2019-03-19T11:25:55.914Z,48.32
2019-03-19T11:28:41.053Z,48.53
2019-03-19T11:31:53.760Z,48.93
2019-03-19T11:38:13.808Z,47.55
2019-03-19T11:44:49.481Z,46.94
2019-03-19T11:51:06.073Z,46.52
2019-03-19T12:11:53.869Z,47.21
2019-03-19T12:31:02.809Z,45.36
2019-03-19T12:59:31.800Z,46.11
2019-03-19T13:05:22.482Z,47.03
2019-03-19T13:11:11.712Z,47.59
2019-03-19T13:13:42.960Z,47.88
2019-03-19T13:16:17.180Z,48.11
2019-03-19T13:18:48.416Z,47.93
2019-03-19T13:21:20.332Z,47.91
2019-03-19T13:23:51.495Z,48.12
2019-03-19T13:26:23.210Z,48.18
2019-03-19T13:28:54.471Z,47.97
2019-03-19T13:31:27.841Z,47.54
2019-03-19T13:33:59.923Z,47.50
2019-03-19T13:45:51.756Z,47.84
2019-03-19T13:48:32.202Z,47.31
2019-03-19T13:57:21.934Z,46.62
2019-03-19T14:01:59.828Z,48.12
2019-03-19T14:06:58.760Z,46.54
2019-03-19T14:09:35.776Z,46.41
2019-03-19T14:18:58.703Z,44.54
2019-03-19T14:21:26.692Z,45.45
2019-03-19T14:23:57.606Z,46.19
2019-03-19T14:26:29.677Z,46.28
2019-03-19T14:29:00.522Z,46.57
2019-03-19T14:31:32.321Z,46.45
2019-03-19T14:34:03.210Z,45.70
2019-03-19T14:36:35.052Z,45.59
2019-03-19T14:39:10.784Z,45.34
2019-03-19T14:41:41.744Z,45.31
2019-03-19T14:44:15.517Z,45.08
2019-03-19T14:46:46.467Z,44.95
2019-03-19T14:49:17.487Z,44.84
2019-03-19T14:51:48.494Z,44.77
2019-03-19T14:54:19.368Z,44.61
2019-03-19T14:56:50.289Z,44.90
2019-03-19T14:59:21.162Z,45.22
2019-03-19T15:01:52.088Z,45.47
2019-03-19T15:04:24.602Z,45.81
2019-03-19T15:06:56.431Z,45.71
2019-03-19T15:09:27.324Z,46.02
2019-03-19T15:11:58.238Z,46.03
2019-03-19T15:14:29.128Z,46.41
2019-03-19T15:17:04.772Z,46.41
2019-03-19T15:19:32.703Z,46.44
2019-03-19T15:22:04.530Z,46.75
2019-03-19T15:24:35.423Z,46.89
2019-03-19T15:27:06.360Z,46.98
2019-03-19T15:29:37.262Z,47.48
2019-03-19T15:32:08.202Z,47.87
2019-03-19T15:34:39.135Z,48.09
2019-03-19T15:37:11.079Z,48.39
2019-03-19T15:39:42.229Z,48.50
2019-03-19T15:42:13.177Z,48.30
2019-03-19T15:44:44.076Z,48.45
2019-03-19T15:47:15.008Z,48.89
2019-03-19T15:49:46.622Z,48.92
2019-03-19T15:52:18.347Z,49.10
2019-03-19T15:54:49.251Z,49.56
2019-03-19T15:57:20.176Z,49.82
2019-03-19T15:59:51.092Z,49.92
2019-03-19T16:02:22.083Z,50.24
2019-03-19T16:04:54.713Z,50.02
2019-03-19T16:07:26.541Z,49.91
2019-03-19T16:09:57.491Z,50.08
2019-03-19T16:12:28.424Z,50.16
2019-03-19T16:14:59.317Z,50.28
2019-03-19T16:17:30.237Z,50.14
2019-03-19T16:20:01.201Z,50.25
2019-03-19T16:22:33.007Z,50.46
2019-03-19T16:25:04.008Z,50.58
2019-03-19T16:27:35.004Z,50.65
2019-03-19T16:30:16.592Z,50.92
2019-03-19T16:32:49.078Z,51.03
2019-03-19T16:35:19.977Z,51.23
2019-03-19T16:37:51.730Z,51.26
2019-03-19T16:40:23.535Z,51.54
2019-03-19T16:42:54.447Z,51.66
2019-03-19T16:45:25.348Z,51.73
2019-03-19T16:47:56.282Z,52.07
2019-03-19T16:50:27.203Z,52.23
2019-03-19T16:52:59.059Z,52.34
2019-03-19T16:55:29.954Z,52.51
2019-03-19T16:58:01.103Z,52.57
2019-03-19T17:00:32.072Z,53.00
2019-03-19T17:03:03.007Z,52.99
2019-03-19T17:05:34.702Z,53.38
2019-03-19T17:08:16.035Z,53.56
2019-03-19T17:10:52.227Z,53.67
2019-03-19T17:13:23.161Z,53.73
2019-03-19T17:15:54.133Z,53.92
2019-03-19T17:18:25.105Z,53.87
2019-03-19T17:20:56.165Z,54.20
2019-03-19T17:23:28.085Z,54.39
2019-03-19T17:25:59.170Z,54.53
2019-03-19T17:28:30.222Z,54.46
2019-03-19T17:31:01.137Z,54.54
2019-03-19T17:33:32.063Z,54.48
2019-03-19T17:36:02.982Z,54.48
2019-03-19T17:38:34.758Z,54.72
2019-03-19T17:41:05.718Z,54.80
2019-03-19T17:43:36.658Z,54.92
2019-03-19T17:46:07.556Z,55.24
2019-03-19T17:48:38.496Z,55.21
2019-03-19T17:51:16.528Z,55.47
2019-03-19T17:53:48.385Z,55.53
2019-03-19T17:56:19.284Z,55.61
2019-03-19T17:58:50.226Z,55.70
2019-03-19T18:01:21.205Z,55.80
2019-03-19T18:03:52.153Z,55.82
2019-03-19T18:06:24.011Z,55.87
2019-03-19T18:08:54.959Z,56.09
2019-03-19T18:11:26.036Z,56.28
2019-03-19T18:13:58.594Z,56.40
2019-03-19T18:16:31.734Z,56.79
2019-03-19T18:19:02.684Z,56.87
2019-03-19T18:21:33.585Z,56.96
2019-03-19T18:24:05.481Z,57.17
2019-03-19T18:26:36.392Z,57.38
2019-03-19T18:29:07.396Z,57.51
2019-03-19T18:31:38.374Z,57.63
2019-03-19T18:34:10.489Z,57.77
2019-03-19T18:36:41.689Z,57.92
2019-03-19T18:39:16.110Z,58.13
2019-03-19T18:41:46.177Z,58.46
2019-03-19T18:44:20.015Z,58.48
2019-03-19T18:46:55.541Z,58.60
2019-03-19T18:49:26.465Z,58.69
2019-03-19T18:51:57.381Z,58.82
2019-03-19T18:54:29.188Z,58.97
2019-03-19T18:57:01.123Z,59.27
2019-03-19T18:59:32.102Z,59.27
2019-03-19T19:02:03.064Z,59.50
2019-03-19T19:04:34.032Z,59.81
2019-03-19T19:07:06.570Z,59.89
2019-03-19T19:09:38.511Z,59.94
2019-03-19T19:12:09.460Z,59.98
2019-03-19T19:14:40.521Z,60.05
2019-03-19T19:17:13.210Z,60.32
2019-03-19T19:19:44.114Z,60.47
2019-03-19T19:22:15.136Z,60.52
2019-03-19T19:24:46.142Z,60.62
2019-03-19T19:27:17.109Z,60.62
2019-03-19T19:29:48.189Z,60.93
2019-03-19T19:32:19.212Z,61.14
2019-03-19T19:34:52.500Z,61.08
2019-03-19T19:37:23.463Z,61.38
2019-03-19T19:39:55.304Z,61.34
2019-03-19T19:42:26.400Z,61.33
2019-03-19T19:44:59.393Z,61.64
2019-03-19T19:47:30.338Z,61.64
2019-03-19T19:50:02.087Z,61.80
2019-03-19T19:52:33.122Z,61.97
2019-03-19T19:55:06.135Z,62.25
2019-03-19T19:57:37.106Z,62.63
2019-03-19T20:00:11.259Z,62.67
2019-03-19T20:02:42.291Z,63.41
2019-03-19T20:05:13.340Z,63.41
2019-03-19T20:07:46.039Z,63.81
2019-03-19T20:10:25.289Z,63.77
2019-03-19T20:13:12.185Z,64.22
2019-03-19T20:15:29.001Z,64.22
2019-03-19T20:17:59.912Z,64.27
2019-03-19T20:20:34.409Z,64.37
2019-03-19T20:23:05.340Z,64.49
2019-03-19T20:25:37.191Z,64.49
2019-03-19T20:28:08.198Z,64.55
2019-03-19T20:30:39.233Z,64.55
2019-03-19T20:33:10.249Z,64.50
2019-03-19T20:35:41.250Z,64.67
2019-03-19T20:38:12.311Z,65.06
2019-03-19T20:40:44.312Z,65.14
2019-03-19T20:43:15.248Z,65.15
2019-03-19T20:45:46.319Z,65.41
2019-03-19T20:48:17.390Z,65.47
2019-03-19T20:50:48.374Z,65.73
2019-03-19T20:53:19.280Z,65.85
2019-03-19T20:55:51.076Z,66.19
2019-03-19T20:58:21.974Z,66.45
2019-03-19T21:00:52.997Z,66.45
2019-03-19T21:03:23.902Z,66.61
2019-03-19T21:05:54.913Z,66.42
2019-03-19T21:08:26.728Z,66.66
2019-03-19T21:10:57.808Z,66.94
2019-03-19T21:13:28.792Z,66.94
2019-03-19T21:15:59.795Z,67.90
2019-03-19T21:18:30.703Z,67.80
2019-03-19T21:21:01.646Z,67.80
2019-03-19T21:23:32.652Z,67.46
2019-03-19T21:26:04.523Z,68.03
2019-03-19T21:28:35.432Z,67.90
2019-03-19T21:31:06.371Z,67.92
2019-03-19T21:33:37.281Z,68.13
2019-03-19T21:36:08.206Z,68.25
2019-03-19T21:38:39.114Z,68.45
2019-03-19T21:41:10.991Z,68.53
2019-03-19T21:43:41.908Z,69.01
2019-03-19T21:46:12.866Z,69.01
2019-03-19T21:48:43.776Z,69.35
2019-03-19T21:51:14.710Z,69.45
2019-03-19T21:53:45.615Z,69.45
2019-03-19T21:56:17.417Z,69.68
2019-03-19T21:58:48.334Z,69.68
2019-03-19T22:01:19.297Z,69.66
2019-03-19T22:03:50.215Z,69.95
2019-03-19T22:06:21.961Z,69.95
2019-03-19T22:08:52.916Z,69.98
2019-03-19T22:11:24.691Z,70.08
2019-03-19T22:13:55.606Z,70.09
2019-03-19T22:16:26.545Z,70.14
2019-03-19T22:19:01.546Z,70.41
2019-03-19T22:21:32.474Z,70.04
2019-03-19T22:24:03.386Z,70.04
2019-03-19T22:26:35.349Z,70.10
2019-03-19T22:29:06.262Z,70.34
2019-03-19T22:31:37.191Z,70.14
2019-03-19T22:34:13.978Z,69.81
2019-03-19T22:36:40.731Z,69.94
2019-03-19T22:39:11.628Z,70.25
2019-03-19T22:41:43.387Z,71.04
2019-03-19T22:44:14.294Z,70.86
2019-03-19T22:46:45.234Z,70.72
2019-03-19T22:49:16.133Z,70.74
2019-03-19T22:51:47.067Z,70.96
2019-03-19T22:54:17.967Z,70.79
2019-03-19T22:56:49.111Z,70.73
2019-03-19T22:59:20.098Z,70.26
2019-03-19T23:01:51.018Z,70.58
2019-03-19T23:04:27.266Z,70.44
2019-03-19T23:06:54.554Z,70.80
2019-03-19T23:09:26.362Z,71.33
2019-03-19T23:11:57.308Z,70.82
2019-03-19T23:14:28.215Z,70.89
2019-03-19T23:16:59.259Z,70.92
2019-03-19T23:19:30.151Z,70.67
2019-03-19T23:22:01.087Z,70.56
2019-03-19T23:24:31.993Z,71.04
2019-03-19T23:27:02.929Z,71.17
2019-03-19T23:29:33.894Z,71.43
2019-03-19T23:32:04.818Z,71.21
2019-03-19T23:34:38.689Z,71.49
2019-03-19T23:37:08.470Z,71.55
2019-03-19T23:39:39.378Z,71.42
2019-03-19T23:42:10.318Z,71.42
2019-03-19T23:44:41.232Z,72.09
2019-03-19T23:47:12.168Z,72.24
2019-03-19T23:49:43.055Z,72.31
2019-03-19T23:52:14.005Z,72.35
2019-03-19T23:54:44.899Z,72.58
2019-03-19T23:57:15.850Z,73.36
2019-03-19T23:59:46.757Z,72.91
